sensor_id;sensor_type;location;lat;lon;timestamp;P1;durP1;ratioP1;P2;durP2;ratioP2
24008;SDS011;12217;50.792;4.372;2023-08-31T00:00:08;4.15;;;2.50;;
24008;SDS011;12217;50.792;4.372;2023-08-31T00:02:35;5.88;;;2.80;;
24008;SDS011;12217;50.792;4.372;2023-08-31T00:05:01;4.28;;;2.90;;
24008;SDS011;12217;50.792;4.372;2023-08-31T00:07:28;4.47;;;3.03;;
24008;SDS011;12217;50.792;4.372;2023-08-31T00:09:54;3.40;;;2.78;;
24008;SDS011;12217;50.792;4.372;2023-08-31T00:12:20;4.28;;;3.22;;
24008;SDS011;12217;50.792;4.372;2023-08-31T00:14:47;5.80;;;3.42;;
24008;SDS011;12217;50.792;4.372;2023-08-31T00:17:14;7.22;;;3.35;;
24008;SDS011;12217;50.792;4.372;2023-08-31T00:19:40;3.60;;;3.22;;
24008;SDS011;12217;50.792;4.372;2023-08-31T00:22:05;3.97;;;3.20;;
24008;SDS011;12217;50.792;4.372;2023-08-31T00:24:31;4.03;;;3.13;;
24008;SDS011;12217;50.792;4.372;2023-08-31T00:27:00;4.72;;;3.00;;
24008;SDS011;12217;50.792;4.372;2023-08-31T00:29:26;6.25;;;3.40;;
24008;SDS011;12217;50.792;4.372;2023-08-31T00:31:52;5.30;;;3.15;;
24008;SDS011;12217;50.792;4.372;2023-08-31T00:34:18;5.03;;;3.42;;
24008;SDS011;12217;50.792;4.372;2023-08-31T00:36:44;3.58;;;3.15;;
24008;SDS011;12217;50.792;4.372;2023-08-31T00:39:10;5.57;;;3.33;;
24008;SDS011;12217;50.792;4.372;2023-08-31T00:41:36;6.05;;;3.22;;
24008;SDS011;12217;50.792;4.372;2023-08-31T00:44:02;4.40;;;3.30;;
24008;SDS011;12217;50.792;4.372;2023-08-31T00:46:30;4.88;;;3.22;;
24008;SDS011;12217;50.792;4.372;2023-08-31T00:48:56;5.97;;;3.35;;
24008;SDS011;12217;50.792;4.372;2023-08-31T00:51:23;6.05;;;3.65;;
24008;SDS011;12217;50.792;4.372;2023-08-31T00:53:50;6.32;;;3.60;;
24008;SDS011;12217;50.792;4.372;2023-08-31T00:56:20;5.68;;;3.45;;
24008;SDS011;12217;50.792;4.372;2023-08-31T00:58:46;4.95;;;3.33;;
24008;SDS011;12217;50.792;4.372;2023-08-31T01:06:24;5.10;;;3.30;;
24008;SDS011;12217;50.792;4.372;2023-08-31T01:08:59;5.35;;;3.40;;
24008;SDS011;12217;50.792;4.372;2023-08-31T01:14:30;5.20;;;3.50;;
24008;SDS011;12217;50.792;4.372;2023-08-31T01:16:59;5.63;;;3.13;;
24008;SDS011;12217;50.792;4.372;2023-08-31T01:19:34;3.63;;;3.25;;
24008;SDS011;12217;50.792;4.372;2023-08-31T01:22:14;6.40;;;3.33;;
24008;SDS011;12217;50.792;4.372;2023-08-31T01:24:46;5.03;;;3.67;;
24008;SDS011;12217;50.792;4.372;2023-08-31T01:27:12;4.75;;;3.25;;
24008;SDS011;12217;50.792;4.372;2023-08-31T01:29:39;4.00;;;3.20;;
24008;SDS011;12217;50.792;4.372;2023-08-31T01:32:05;4.80;;;2.85;;
24008;SDS011;12217;50.792;4.372;2023-08-31T01:34:32;5.50;;;3.45;;
24008;SDS011;12217;50.792;4.372;2023-08-31T01:36:59;8.55;;;3.35;;
24008;SDS011;12217;50.792;4.372;2023-08-31T01:39:39;8.05;;;3.50;;
24008;SDS011;12217;50.792;4.372;2023-08-31T01:42:12;7.18;;;3.40;;
24008;SDS011;12217;50.792;4.372;2023-08-31T01:44:41;7.28;;;4.00;;
24008;SDS011;12217;50.792;4.372;2023-08-31T01:47:08;5.25;;;3.22;;
24008;SDS011;12217;50.792;4.372;2023-08-31T01:49:40;4.93;;;3.75;;
24008;SDS011;12217;50.792;4.372;2023-08-31T01:54:32;4.57;;;3.10;;
24008;SDS011;12217;50.792;4.372;2023-08-31T01:56:59;5.47;;;3.15;;
24008;SDS011;12217;50.792;4.372;2023-08-31T01:59:24;4.65;;;3.28;;
24008;SDS011;12217;50.792;4.372;2023-08-31T02:01:51;5.50;;;3.50;;
24008;SDS011;12217;50.792;4.372;2023-08-31T02:04:17;5.15;;;3.35;;
24008;SDS011;12217;50.792;4.372;2023-08-31T02:06:42;6.28;;;3.70;;
24008;SDS011;12217;50.792;4.372;2023-08-31T02:09:08;4.95;;;3.33;;
24008;SDS011;12217;50.792;4.372;2023-08-31T02:11:34;5.90;;;3.80;;
24008;SDS011;12217;50.792;4.372;2023-08-31T02:14:03;4.90;;;4.13;;
24008;SDS011;12217;50.792;4.372;2023-08-31T02:16:29;5.70;;;3.92;;
24008;SDS011;12217;50.792;4.372;2023-08-31T02:18:56;5.43;;;3.85;;
24008;SDS011;12217;50.792;4.372;2023-08-31T02:21:22;6.15;;;3.72;;
24008;SDS011;12217;50.792;4.372;2023-08-31T02:23:48;5.85;;;4.10;;
24008;SDS011;12217;50.792;4.372;2023-08-31T02:26:13;5.20;;;4.10;;
24008;SDS011;12217;50.792;4.372;2023-08-31T02:28:39;7.60;;;4.40;;
24008;SDS011;12217;50.792;4.372;2023-08-31T02:31:05;6.38;;;4.13;;
24008;SDS011;12217;50.792;4.372;2023-08-31T02:33:30;6.07;;;4.40;;
24008;SDS011;12217;50.792;4.372;2023-08-31T02:35:56;8.15;;;4.10;;
24008;SDS011;12217;50.792;4.372;2023-08-31T02:38:22;7.75;;;4.05;;
24008;SDS011;12217;50.792;4.372;2023-08-31T02:40:48;8.85;;;4.40;;
24008;SDS011;12217;50.792;4.372;2023-08-31T02:43:14;9.55;;;4.80;;
24008;SDS011;12217;50.792;4.372;2023-08-31T02:45:40;7.57;;;4.47;;
24008;SDS011;12217;50.792;4.372;2023-08-31T02:48:06;6.97;;;4.18;;
24008;SDS011;12217;50.792;4.372;2023-08-31T02:50:33;9.43;;;4.18;;
24008;SDS011;12217;50.792;4.372;2023-08-31T02:53:00;6.05;;;4.03;;
24008;SDS011;12217;50.792;4.372;2023-08-31T02:55:25;7.35;;;4.00;;
24008;SDS011;12217;50.792;4.372;2023-08-31T02:57:51;4.70;;;3.65;;
24008;SDS011;12217;50.792;4.372;2023-08-31T03:00:17;6.35;;;3.92;;
24008;SDS011;12217;50.792;4.372;2023-08-31T03:02:46;6.80;;;3.90;;
24008;SDS011;12217;50.792;4.372;2023-08-31T03:05:12;6.50;;;3.75;;
24008;SDS011;12217;50.792;4.372;2023-08-31T03:07:38;5.03;;;3.42;;
24008;SDS011;12217;50.792;4.372;2023-08-31T03:10:04;5.43;;;3.83;;
24008;SDS011;12217;50.792;4.372;2023-08-31T03:12:30;4.32;;;3.67;;
24008;SDS011;12217;50.792;4.372;2023-08-31T03:14:55;5.65;;;3.70;;
24008;SDS011;12217;50.792;4.372;2023-08-31T03:17:21;7.43;;;3.92;;
24008;SDS011;12217;50.792;4.372;2023-08-31T03:19:47;6.22;;;3.67;;
24008;SDS011;12217;50.792;4.372;2023-08-31T03:22:12;6.85;;;3.92;;
24008;SDS011;12217;50.792;4.372;2023-08-31T03:24:38;6.70;;;3.70;;
24008;SDS011;12217;50.792;4.372;2023-08-31T03:27:04;6.72;;;3.70;;
24008;SDS011;12217;50.792;4.372;2023-08-31T03:29:29;9.77;;;3.78;;
24008;SDS011;12217;50.792;4.372;2023-08-31T03:31:57;6.43;;;3.38;;
24008;SDS011;12217;50.792;4.372;2023-08-31T03:34:22;5.20;;;3.35;;
24008;SDS011;12217;50.792;4.372;2023-08-31T03:36:48;6.85;;;3.72;;
24008;SDS011;12217;50.792;4.372;2023-08-31T03:39:15;7.57;;;3.72;;
24008;SDS011;12217;50.792;4.372;2023-08-31T03:41:41;8.25;;;3.80;;
24008;SDS011;12217;50.792;4.372;2023-08-31T03:44:06;4.43;;;3.58;;
24008;SDS011;12217;50.792;4.372;2023-08-31T03:46:32;5.95;;;3.50;;
24008;SDS011;12217;50.792;4.372;2023-08-31T03:48:57;4.57;;;3.50;;
24008;SDS011;12217;50.792;4.372;2023-08-31T03:51:23;9.15;;;3.72;;
24008;SDS011;12217;50.792;4.372;2023-08-31T03:53:48;7.03;;;3.58;;
24008;SDS011;12217;50.792;4.372;2023-08-31T03:56:14;4.97;;;3.70;;
24008;SDS011;12217;50.792;4.372;2023-08-31T03:58:40;6.07;;;3.50;;
24008;SDS011;12217;50.792;4.372;2023-08-31T04:01:05;5.43;;;3.40;;
24008;SDS011;12217;50.792;4.372;2023-08-31T04:03:31;6.25;;;3.40;;
24008;SDS011;12217;50.792;4.372;2023-08-31T04:05:57;5.63;;;3.63;;
24008;SDS011;12217;50.792;4.372;2023-08-31T04:08:22;4.30;;;3.25;;
24008;SDS011;12217;50.792;4.372;2023-08-31T04:10:48;7.22;;;3.67;;
24008;SDS011;12217;50.792;4.372;2023-08-31T04:13:13;5.22;;;3.53;;
24008;SDS011;12217;50.792;4.372;2023-08-31T04:15:39;5.82;;;3.47;;
24008;SDS011;12217;50.792;4.372;2023-08-31T04:18:05;6.30;;;3.60;;
24008;SDS011;12217;50.792;4.372;2023-08-31T04:20:32;7.90;;;3.67;;
24008;SDS011;12217;50.792;4.372;2023-08-31T04:22:58;4.45;;;3.22;;
24008;SDS011;12217;50.792;4.372;2023-08-31T04:25:23;7.30;;;3.40;;
24008;SDS011;12217;50.792;4.372;2023-08-31T04:27:49;3.65;;;3.13;;
24008;SDS011;12217;50.792;4.372;2023-08-31T04:30:14;5.72;;;3.47;;
24008;SDS011;12217;50.792;4.372;2023-08-31T04:32:40;5.15;;;3.33;;
24008;SDS011;12217;50.792;4.372;2023-08-31T04:35:07;2.85;;;2.65;;
24008;SDS011;12217;50.792;4.372;2023-08-31T04:37:33;6.55;;;3.17;;
24008;SDS011;12217;50.792;4.372;2023-08-31T04:39:59;5.90;;;3.38;;
24008;SDS011;12217;50.792;4.372;2023-08-31T04:42:24;8.45;;;3.13;;
24008;SDS011;12217;50.792;4.372;2023-08-31T04:44:50;6.10;;;3.58;;
24008;SDS011;12217;50.792;4.372;2023-08-31T04:47:15;5.63;;;3.80;;
24008;SDS011;12217;50.792;4.372;2023-08-31T04:49:41;6.43;;;3.30;;
24008;SDS011;12217;50.792;4.372;2023-08-31T04:52:07;11.90;;;4.05;;
24008;SDS011;12217;50.792;4.372;2023-08-31T04:54:33;6.30;;;3.50;;
24008;SDS011;12217;50.792;4.372;2023-08-31T04:56:59;5.00;;;3.25;;
24008;SDS011;12217;50.792;4.372;2023-08-31T04:59:24;4.63;;;3.40;;
24008;SDS011;12217;50.792;4.372;2023-08-31T05:01:50;5.88;;;3.47;;
24008;SDS011;12217;50.792;4.372;2023-08-31T05:04:15;5.43;;;3.17;;
24008;SDS011;12217;50.792;4.372;2023-08-31T05:06:41;7.78;;;3.45;;
24008;SDS011;12217;50.792;4.372;2023-08-31T05:09:07;4.70;;;3.47;;
24008;SDS011;12217;50.792;4.372;2023-08-31T05:11:33;5.75;;;3.20;;
24008;SDS011;12217;50.792;4.372;2023-08-31T05:13:58;3.40;;;3.10;;
24008;SDS011;12217;50.792;4.372;2023-08-31T05:16:24;5.18;;;3.35;;
24008;SDS011;12217;50.792;4.372;2023-08-31T05:18:49;6.25;;;3.50;;
24008;SDS011;12217;50.792;4.372;2023-08-31T05:21:15;4.32;;;3.60;;
24008;SDS011;12217;50.792;4.372;2023-08-31T05:23:41;9.20;;;4.28;;
24008;SDS011;12217;50.792;4.372;2023-08-31T05:26:06;6.43;;;4.20;;
24008;SDS011;12217;50.792;4.372;2023-08-31T05:28:32;6.40;;;3.75;;
24008;SDS011;12217;50.792;4.372;2023-08-31T05:30:59;5.85;;;4.10;;
24008;SDS011;12217;50.792;4.372;2023-08-31T05:33:27;5.90;;;3.80;;
24008;SDS011;12217;50.792;4.372;2023-08-31T05:35:53;5.20;;;3.83;;
24008;SDS011;12217;50.792;4.372;2023-08-31T05:38:19;5.25;;;3.55;;
24008;SDS011;12217;50.792;4.372;2023-08-31T05:40:45;6.43;;;3.83;;
24008;SDS011;12217;50.792;4.372;2023-08-31T05:43:15;5.40;;;3.95;;
24008;SDS011;12217;50.792;4.372;2023-08-31T05:45:41;5.43;;;3.78;;
24008;SDS011;12217;50.792;4.372;2023-08-31T05:48:07;8.35;;;4.20;;
24008;SDS011;12217;50.792;4.372;2023-08-31T05:50:33;7.75;;;4.20;;
24008;SDS011;12217;50.792;4.372;2023-08-31T05:53:01;8.75;;;4.40;;
24008;SDS011;12217;50.792;4.372;2023-08-31T05:55:28;9.10;;;4.40;;
24008;SDS011;12217;50.792;4.372;2023-08-31T05:57:53;6.90;;;4.18;;
24008;SDS011;12217;50.792;4.372;2023-08-31T06:00:19;8.43;;;4.78;;
24008;SDS011;12217;50.792;4.372;2023-08-31T06:02:44;11.68;;;4.70;;
24008;SDS011;12217;50.792;4.372;2023-08-31T06:05:10;7.97;;;4.30;;
24008;SDS011;12217;50.792;4.372;2023-08-31T06:07:41;10.23;;;4.25;;
24008;SDS011;12217;50.792;4.372;2023-08-31T06:10:07;10.25;;;4.53;;
24008;SDS011;12217;50.792;4.372;2023-08-31T06:12:33;9.10;;;3.97;;
24008;SDS011;12217;50.792;4.372;2023-08-31T06:14:58;8.70;;;4.50;;
24008;SDS011;12217;50.792;4.372;2023-08-31T06:17:25;9.02;;;4.60;;
24008;SDS011;12217;50.792;4.372;2023-08-31T06:19:51;11.13;;;4.72;;
24008;SDS011;12217;50.792;4.372;2023-08-31T06:22:16;14.25;;;4.88;;
24008;SDS011;12217;50.792;4.372;2023-08-31T06:24:43;8.23;;;4.50;;
24008;SDS011;12217;50.792;4.372;2023-08-31T06:27:10;11.65;;;4.78;;
24008;SDS011;12217;50.792;4.372;2023-08-31T06:29:37;9.60;;;4.32;;
24008;SDS011;12217;50.792;4.372;2023-08-31T06:32:03;15.48;;;5.05;;
24008;SDS011;12217;50.792;4.372;2023-08-31T06:34:29;12.90;;;4.50;;
24008;SDS011;12217;50.792;4.372;2023-08-31T06:36:56;9.38;;;4.70;;
24008;SDS011;12217;50.792;4.372;2023-08-31T06:39:23;14.98;;;4.50;;
24008;SDS011;12217;50.792;4.372;2023-08-31T06:41:49;12.15;;;4.57;;
24008;SDS011;12217;50.792;4.372;2023-08-31T06:44:15;10.70;;;4.93;;
24008;SDS011;12217;50.792;4.372;2023-08-31T06:46:41;9.07;;;4.32;;
24008;SDS011;12217;50.792;4.372;2023-08-31T06:49:07;9.32;;;4.30;;
24008;SDS011;12217;50.792;4.372;2023-08-31T06:51:34;9.68;;;4.53;;
24008;SDS011;12217;50.792;4.372;2023-08-31T06:54:00;13.00;;;5.07;;
24008;SDS011;12217;50.792;4.372;2023-08-31T06:56:31;9.30;;;4.45;;
24008;SDS011;12217;50.792;4.372;2023-08-31T06:58:58;9.93;;;4.18;;
24008;SDS011;12217;50.792;4.372;2023-08-31T07:01:23;9.98;;;4.53;;
24008;SDS011;12217;50.792;4.372;2023-08-31T07:03:49;13.75;;;5.00;;
24008;SDS011;12217;50.792;4.372;2023-08-31T07:06:14;9.75;;;4.53;;
24008;SDS011;12217;50.792;4.372;2023-08-31T07:08:40;10.27;;;4.55;;
24008;SDS011;12217;50.792;4.372;2023-08-31T07:11:07;14.70;;;5.30;;
24008;SDS011;12217;50.792;4.372;2023-08-31T07:13:32;13.45;;;5.18;;
24008;SDS011;12217;50.792;4.372;2023-08-31T07:15:58;9.32;;;4.75;;
24008;SDS011;12217;50.792;4.372;2023-08-31T07:18:23;16.25;;;5.05;;
24008;SDS011;12217;50.792;4.372;2023-08-31T07:20:49;10.02;;;4.60;;
24008;SDS011;12217;50.792;4.372;2023-08-31T07:23:15;14.43;;;5.40;;
24008;SDS011;12217;50.792;4.372;2023-08-31T07:25:40;13.27;;;4.70;;
24008;SDS011;12217;50.792;4.372;2023-08-31T07:28:07;16.20;;;5.25;;
24008;SDS011;12217;50.792;4.372;2023-08-31T07:30:32;12.35;;;5.72;;
24008;SDS011;12217;50.792;4.372;2023-08-31T07:32:58;12.80;;;5.63;;
24008;SDS011;12217;50.792;4.372;2023-08-31T07:35:29;12.20;;;5.00;;
24008;SDS011;12217;50.792;4.372;2023-08-31T07:37:55;16.63;;;5.90;;
24008;SDS011;12217;50.792;4.372;2023-08-31T07:40:21;14.48;;;5.68;;
24008;SDS011;12217;50.792;4.372;2023-08-31T07:42:46;14.15;;;5.63;;
24008;SDS011;12217;50.792;4.372;2023-08-31T07:45:12;11.30;;;5.30;;
24008;SDS011;12217;50.792;4.372;2023-08-31T07:47:38;11.95;;;4.55;;
24008;SDS011;12217;50.792;4.372;2023-08-31T07:50:03;9.70;;;5.13;;
24008;SDS011;12217;50.792;4.372;2023-08-31T07:52:29;15.93;;;6.00;;
24008;SDS011;12217;50.792;4.372;2023-08-31T07:54:55;11.13;;;5.30;;
24008;SDS011;12217;50.792;4.372;2023-08-31T07:57:21;13.68;;;5.40;;
24008;SDS011;12217;50.792;4.372;2023-08-31T07:59:47;10.45;;;5.05;;
24008;SDS011;12217;50.792;4.372;2023-08-31T08:02:12;10.43;;;5.32;;
24008;SDS011;12217;50.792;4.372;2023-08-31T08:04:38;11.48;;;5.68;;
24008;SDS011;12217;50.792;4.372;2023-08-31T08:07:04;16.75;;;5.55;;
24008;SDS011;12217;50.792;4.372;2023-08-31T08:09:29;12.00;;;5.53;;
24008;SDS011;12217;50.792;4.372;2023-08-31T08:11:55;11.95;;;5.63;;
24008;SDS011;12217;50.792;4.372;2023-08-31T08:14:21;10.23;;;5.47;;
24008;SDS011;12217;50.792;4.372;2023-08-31T08:16:46;11.27;;;6.20;;
24008;SDS011;12217;50.792;4.372;2023-08-31T08:19:12;13.40;;;5.07;;
24008;SDS011;12217;50.792;4.372;2023-08-31T08:21:38;9.68;;;5.18;;
24008;SDS011;12217;50.792;4.372;2023-08-31T08:24:03;7.82;;;5.40;;
24008;SDS011;12217;50.792;4.372;2023-08-31T08:26:29;11.30;;;5.40;;
24008;SDS011;12217;50.792;4.372;2023-08-31T08:28:55;11.65;;;5.28;;
24008;SDS011;12217;50.792;4.372;2023-08-31T08:31:20;12.82;;;5.78;;
24008;SDS011;12217;50.792;4.372;2023-08-31T08:33:46;12.02;;;5.65;;
24008;SDS011;12217;50.792;4.372;2023-08-31T08:36:11;9.65;;;5.20;;
24008;SDS011;12217;50.792;4.372;2023-08-31T08:38:37;11.82;;;5.10;;
24008;SDS011;12217;50.792;4.372;2023-08-31T08:41:06;10.73;;;5.03;;
24008;SDS011;12217;50.792;4.372;2023-08-31T08:43:32;13.98;;;5.00;;
24008;SDS011;12217;50.792;4.372;2023-08-31T08:46:00;11.90;;;4.95;;
24008;SDS011;12217;50.792;4.372;2023-08-31T08:48:30;12.35;;;5.35;;
24008;SDS011;12217;50.792;4.372;2023-08-31T08:51:00;12.35;;;4.78;;
24008;SDS011;12217;50.792;4.372;2023-08-31T08:53:27;8.95;;;4.32;;
24008;SDS011;12217;50.792;4.372;2023-08-31T08:55:53;12.15;;;4.75;;
24008;SDS011;12217;50.792;4.372;2023-08-31T08:58:19;11.80;;;5.15;;
24008;SDS011;12217;50.792;4.372;2023-08-31T09:00:44;9.82;;;4.50;;
24008;SDS011;12217;50.792;4.372;2023-08-31T09:03:11;10.60;;;4.82;;
24008;SDS011;12217;50.792;4.372;2023-08-31T09:05:37;9.73;;;4.70;;
24008;SDS011;12217;50.792;4.372;2023-08-31T09:08:06;8.85;;;4.60;;
24008;SDS011;12217;50.792;4.372;2023-08-31T09:10:41;9.65;;;5.03;;
24008;SDS011;12217;50.792;4.372;2023-08-31T09:13:11;10.73;;;4.40;;
24008;SDS011;12217;50.792;4.372;2023-08-31T09:15:39;11.32;;;4.85;;
24008;SDS011;12217;50.792;4.372;2023-08-31T09:18:06;8.43;;;5.32;;
24008;SDS011;12217;50.792;4.372;2023-08-31T09:20:31;9.57;;;4.80;;
24008;SDS011;12217;50.792;4.372;2023-08-31T09:23:08;11.18;;;4.70;;
24008;SDS011;12217;50.792;4.372;2023-08-31T09:25:38;11.60;;;4.85;;
24008;SDS011;12217;50.792;4.372;2023-08-31T09:28:10;13.02;;;4.68;;
24008;SDS011;12217;50.792;4.372;2023-08-31T09:30:39;14.05;;;4.95;;
24008;SDS011;12217;50.792;4.372;2023-08-31T09:33:09;10.68;;;4.68;;
24008;SDS011;12217;50.792;4.372;2023-08-31T09:35:41;8.63;;;4.47;;
24008;SDS011;12217;50.792;4.372;2023-08-31T09:38:29;8.07;;;4.57;;
24008;SDS011;12217;50.792;4.372;2023-08-31T09:41:04;10.30;;;4.32;;
24008;SDS011;12217;50.792;4.372;2023-08-31T09:43:33;11.25;;;4.30;;
24008;SDS011;12217;50.792;4.372;2023-08-31T09:45:59;12.02;;;5.45;;
24008;SDS011;12217;50.792;4.372;2023-08-31T09:48:27;11.25;;;4.35;;
24008;SDS011;12217;50.792;4.372;2023-08-31T09:50:54;8.93;;;4.50;;
24008;SDS011;12217;50.792;4.372;2023-08-31T09:53:21;7.18;;;3.60;;
24008;SDS011;12217;50.792;4.372;2023-08-31T09:55:49;9.80;;;3.50;;
24008;SDS011;12217;50.792;4.372;2023-08-31T09:58:20;8.75;;;3.33;;
24008;SDS011;12217;50.792;4.372;2023-08-31T10:00:46;9.07;;;3.40;;
24008;SDS011;12217;50.792;4.372;2023-08-31T10:03:14;7.82;;;3.20;;
24008;SDS011;12217;50.792;4.372;2023-08-31T10:05:42;8.55;;;3.10;;
24008;SDS011;12217;50.792;4.372;2023-08-31T10:08:08;10.07;;;3.63;;
24008;SDS011;12217;50.792;4.372;2023-08-31T10:10:35;6.38;;;2.78;;
24008;SDS011;12217;50.792;4.372;2023-08-31T10:13:03;12.00;;;3.10;;
24008;SDS011;12217;50.792;4.372;2023-08-31T10:15:34;8.93;;;2.72;;
24008;SDS011;12217;50.792;4.372;2023-08-31T10:18:01;11.30;;;3.10;;
24008;SDS011;12217;50.792;4.372;2023-08-31T10:20:30;11.05;;;3.38;;
24008;SDS011;12217;50.792;4.372;2023-08-31T10:23:02;8.15;;;3.10;;
24008;SDS011;12217;50.792;4.372;2023-08-31T10:36:17;8.32;;;3.38;;
24008;SDS011;12217;50.792;4.372;2023-08-31T10:41:22;7.15;;;2.78;;
24008;SDS011;12217;50.792;4.372;2023-08-31T10:43:54;7.00;;;3.60;;
24008;SDS011;12217;50.792;4.372;2023-08-31T10:46:36;14.93;;;4.00;;
24008;SDS011;12217;50.792;4.372;2023-08-31T10:51:40;8.27;;;3.03;;
24008;SDS011;12217;50.792;4.372;2023-08-31T10:54:23;5.55;;;2.85;;
24008;SDS011;12217;50.792;4.372;2023-08-31T10:59:43;7.95;;;2.60;;
24008;SDS011;12217;50.792;4.372;2023-08-31T11:02:34;7.55;;;2.80;;
24008;SDS011;12217;50.792;4.372;2023-08-31T11:07:31;8.32;;;2.60;;
24008;SDS011;12217;50.792;4.372;2023-08-31T11:12:43;8.20;;;2.50;;
24008;SDS011;12217;50.792;4.372;2023-08-31T11:15:11;4.90;;;2.42;;
24008;SDS011;12217;50.792;4.372;2023-08-31T11:17:39;7.82;;;2.30;;
24008;SDS011;12217;50.792;4.372;2023-08-31T11:20:05;7.78;;;2.20;;
24008;SDS011;12217;50.792;4.372;2023-08-31T11:22:34;8.98;;;2.70;;
24008;SDS011;12217;50.792;4.372;2023-08-31T11:25:03;12.25;;;2.38;;
24008;SDS011;12217;50.792;4.372;2023-08-31T11:27:29;5.85;;;2.45;;
24008;SDS011;12217;50.792;4.372;2023-08-31T11:29:55;3.83;;;1.90;;
24008;SDS011;12217;50.792;4.372;2023-08-31T11:32:24;8.38;;;2.42;;
24008;SDS011;12217;50.792;4.372;2023-08-31T11:34:50;4.78;;;2.17;;
24008;SDS011;12217;50.792;4.372;2023-08-31T11:37:16;5.82;;;2.05;;
24008;SDS011;12217;50.792;4.372;2023-08-31T11:39:49;6.78;;;2.22;;
24008;SDS011;12217;50.792;4.372;2023-08-31T11:42:15;6.43;;;2.55;;
24008;SDS011;12217;50.792;4.372;2023-08-31T11:44:43;7.88;;;2.40;;
24008;SDS011;12217;50.792;4.372;2023-08-31T11:47:19;7.07;;;2.58;;
24008;SDS011;12217;50.792;4.372;2023-08-31T11:49:45;6.00;;;2.22;;
24008;SDS011;12217;50.792;4.372;2023-08-31T11:52:13;7.75;;;2.55;;
24008;SDS011;12217;50.792;4.372;2023-08-31T11:54:40;7.03;;;2.35;;
24008;SDS011;12217;50.792;4.372;2023-08-31T11:57:07;6.68;;;2.47;;
24008;SDS011;12217;50.792;4.372;2023-08-31T11:59:36;7.72;;;2.42;;
24008;SDS011;12217;50.792;4.372;2023-08-31T12:02:06;6.70;;;2.30;;
24008;SDS011;12217;50.792;4.372;2023-08-31T12:04:33;5.57;;;2.30;;
24008;SDS011;12217;50.792;4.372;2023-08-31T12:07:11;9.60;;;2.45;;
24008;SDS011;12217;50.792;4.372;2023-08-31T12:09:47;6.90;;;2.40;;
24008;SDS011;12217;50.792;4.372;2023-08-31T12:12:13;10.10;;;3.10;;
24008;SDS011;12217;50.792;4.372;2023-08-31T12:14:42;10.27;;;2.40;;
24008;SDS011;12217;50.792;4.372;2023-08-31T12:17:09;6.90;;;2.38;;
24008;SDS011;12217;50.792;4.372;2023-08-31T12:19:37;6.00;;;2.45;;
24008;SDS011;12217;50.792;4.372;2023-08-31T12:22:04;5.93;;;2.03;;
24008;SDS011;12217;50.792;4.372;2023-08-31T12:24:39;6.20;;;2.25;;
24008;SDS011;12217;50.792;4.372;2023-08-31T12:27:08;6.13;;;2.22;;
24008;SDS011;12217;50.792;4.372;2023-08-31T12:29:34;7.07;;;2.25;;
24008;SDS011;12217;50.792;4.372;2023-08-31T12:32:00;8.27;;;2.25;;
24008;SDS011;12217;50.792;4.372;2023-08-31T12:34:28;8.95;;;2.05;;
24008;SDS011;12217;50.792;4.372;2023-08-31T12:36:56;4.50;;;2.03;;
24008;SDS011;12217;50.792;4.372;2023-08-31T12:39:24;5.78;;;1.92;;
24008;SDS011;12217;50.792;4.372;2023-08-31T12:41:50;6.97;;;2.08;;
24008;SDS011;12217;50.792;4.372;2023-08-31T12:44:16;4.95;;;2.13;;
24008;SDS011;12217;50.792;4.372;2023-08-31T12:46:41;7.78;;;2.00;;
24008;SDS011;12217;50.792;4.372;2023-08-31T12:49:07;5.00;;;2.03;;
24008;SDS011;12217;50.792;4.372;2023-08-31T12:51:32;8.85;;;2.17;;
24008;SDS011;12217;50.792;4.372;2023-08-31T12:53:58;6.70;;;1.85;;
24008;SDS011;12217;50.792;4.372;2023-08-31T12:56:23;5.95;;;2.00;;
24008;SDS011;12217;50.792;4.372;2023-08-31T12:58:52;4.90;;;2.08;;
24008;SDS011;12217;50.792;4.372;2023-08-31T13:01:20;4.38;;;1.67;;
24008;SDS011;12217;50.792;4.372;2023-08-31T13:03:47;6.50;;;2.17;;
24008;SDS011;12217;50.792;4.372;2023-08-31T13:06:13;6.32;;;2.33;;
24008;SDS011;12217;50.792;4.372;2023-08-31T13:08:41;4.90;;;1.75;;
24008;SDS011;12217;50.792;4.372;2023-08-31T13:11:08;9.65;;;2.38;;
24008;SDS011;12217;50.792;4.372;2023-08-31T13:13:34;5.50;;;1.85;;
24008;SDS011;12217;50.792;4.372;2023-08-31T13:16:00;4.55;;;2.00;;
24008;SDS011;12217;50.792;4.372;2023-08-31T13:18:26;5.20;;;1.77;;
24008;SDS011;12217;50.792;4.372;2023-08-31T13:20:52;7.10;;;2.10;;
24008;SDS011;12217;50.792;4.372;2023-08-31T13:23:18;6.88;;;2.28;;
24008;SDS011;12217;50.792;4.372;2023-08-31T13:25:45;4.60;;;1.98;;
24008;SDS011;12217;50.792;4.372;2023-08-31T13:28:11;5.72;;;2.05;;
24008;SDS011;12217;50.792;4.372;2023-08-31T13:30:37;5.80;;;2.08;;
24008;SDS011;12217;50.792;4.372;2023-08-31T13:33:02;3.72;;;1.70;;
24008;SDS011;12217;50.792;4.372;2023-08-31T13:35:29;7.15;;;2.17;;
24008;SDS011;12217;50.792;4.372;2023-08-31T13:37:55;4.55;;;2.00;;
24008;SDS011;12217;50.792;4.372;2023-08-31T13:40:21;5.97;;;2.30;;
24008;SDS011;12217;50.792;4.372;2023-08-31T13:45:38;7.35;;;2.58;;
24008;SDS011;12217;50.792;4.372;2023-08-31T13:48:04;7.82;;;2.40;;
24008;SDS011;12217;50.792;4.372;2023-08-31T13:50:30;8.13;;;2.50;;
24008;SDS011;12217;50.792;4.372;2023-08-31T13:52:55;7.90;;;2.78;;
24008;SDS011;12217;50.792;4.372;2023-08-31T13:55:21;7.38;;;2.53;;
24008;SDS011;12217;50.792;4.372;2023-08-31T13:57:48;7.28;;;2.47;;
24008;SDS011;12217;50.792;4.372;2023-08-31T14:00:14;7.13;;;2.53;;
24008;SDS011;12217;50.792;4.372;2023-08-31T14:02:41;7.50;;;2.45;;
24008;SDS011;12217;50.792;4.372;2023-08-31T14:05:08;14.77;;;3.30;;
24008;SDS011;12217;50.792;4.372;2023-08-31T14:07:38;15.65;;;3.20;;
24008;SDS011;12217;50.792;4.372;2023-08-31T14:10:04;13.05;;;2.75;;
24008;SDS011;12217;50.792;4.372;2023-08-31T14:12:33;7.47;;;2.97;;
24008;SDS011;12217;50.792;4.372;2023-08-31T14:14:59;9.50;;;3.20;;
24008;SDS011;12217;50.792;4.372;2023-08-31T14:17:29;8.88;;;2.55;;
24008;SDS011;12217;50.792;4.372;2023-08-31T14:19:55;6.10;;;3.00;;
24008;SDS011;12217;50.792;4.372;2023-08-31T14:22:20;8.10;;;2.70;;
24008;SDS011;12217;50.792;4.372;2023-08-31T14:24:47;9.98;;;2.85;;
24008;SDS011;12217;50.792;4.372;2023-08-31T14:27:13;7.57;;;2.90;;
24008;SDS011;12217;50.792;4.372;2023-08-31T14:29:39;10.13;;;3.25;;
24008;SDS011;12217;50.792;4.372;2023-08-31T14:32:04;22.50;;;4.40;;
24008;SDS011;12217;50.792;4.372;2023-08-31T14:34:30;9.30;;;3.17;;
24008;SDS011;12217;50.792;4.372;2023-08-31T14:36:56;17.52;;;3.65;;
24008;SDS011;12217;50.792;4.372;2023-08-31T14:39:24;10.15;;;3.45;;
24008;SDS011;12217;50.792;4.372;2023-08-31T14:41:54;10.48;;;2.88;;
24008;SDS011;12217;50.792;4.372;2023-08-31T14:44:21;10.23;;;3.20;;
24008;SDS011;12217;50.792;4.372;2023-08-31T14:46:47;7.75;;;3.13;;
24008;SDS011;12217;50.792;4.372;2023-08-31T14:49:12;7.97;;;2.95;;
24008;SDS011;12217;50.792;4.372;2023-08-31T14:51:38;7.30;;;2.80;;
24008;SDS011;12217;50.792;4.372;2023-08-31T14:54:05;8.10;;;3.10;;
24008;SDS011;12217;50.792;4.372;2023-08-31T14:56:31;8.30;;;3.00;;
24008;SDS011;12217;50.792;4.372;2023-08-31T14:58:57;9.68;;;3.20;;
24008;SDS011;12217;50.792;4.372;2023-08-31T15:01:22;8.95;;;3.60;;
24008;SDS011;12217;50.792;4.372;2023-08-31T15:03:49;9.57;;;3.20;;
24008;SDS011;12217;50.792;4.372;2023-08-31T15:06:15;9.68;;;4.10;;
24008;SDS011;12217;50.792;4.372;2023-08-31T15:08:41;7.57;;;3.42;;
24008;SDS011;12217;50.792;4.372;2023-08-31T15:11:07;8.48;;;3.05;;
24008;SDS011;12217;50.792;4.372;2023-08-31T15:13:33;6.82;;;2.80;;
24008;SDS011;12217;50.792;4.372;2023-08-31T15:15:59;9.38;;;3.45;;
24008;SDS011;12217;50.792;4.372;2023-08-31T15:18:28;14.88;;;5.10;;
24008;SDS011;12217;50.792;4.372;2023-08-31T15:20:55;11.27;;;4.28;;